Time;durP1;ratioP1;P1;durP2;ratioP2;P2;SDS_P1;SDS_P2;PMS_P1;PMS_P2;Temp;Humidity;BMP_temperature;BMP_pressure;BME280_temperature;BME280_humidity;BME280_pressure;Samples;Min_cycle;Max_cycle;Signal;HPM_P1;HPM_P2
2023/05/31 00:01:18;;;;;;;3.63;1.73;;;;;;;8.60;97.28;101889.56;5076181;28;20084;-79
2023/05/31 00:03:47;;;;;;;4.67;2.10;;;;;;;8.63;96.10;101893.97;5050633;28;20046;-80
2023/05/31 00:06:14;;;;;;;3.00;1.70;;;;;;;8.62;96.51;101897.47;5073862;28;20588;-80
2023/05/31 00:08:41;;;;;;;4.93;1.80;;;;;;;8.56;97.18;101890.41;5055558;28;20094;-79
2023/05/31 00:11:08;;;;;;;4.00;2.10;;;;;;;8.63;97.17;101896.59;5066708;28;20044;-78
2023/05/31 00:13:35;;;;;;;3.20;1.70;;;;;;;8.62;97.85;101894.84;5073796;28;20412;-79
2023/05/31 00:16:01;;;;;;;3.53;1.97;;;;;;;8.48;98.87;101889.44;5067371;28;20484;-82
2023/05/31 00:18:28;;;;;;;3.93;2.20;;;;;;;8.44;99.98;101898.22;5061019;28;20036;-81
2023/05/31 00:20:55;;;;;;;3.30;1.77;;;;;;;8.28;100.00;101896.28;5062449;28;20272;-83
2023/05/31 00:23:22;;;;;;;3.67;1.73;;;;;;;8.21;100.00;101897.97;5060644;28;20557;-83
2023/05/31 00:25:48;;;;;;;2.70;1.80;;;;;;;8.05;100.00;101894.31;5072115;28;20040;-82
2023/05/31 00:28:15;;;;;;;4.13;2.20;;;;;;;7.90;100.00;101897.69;5070119;28;20231;-83
2023/05/31 00:30:42;;;;;;;4.00;1.90;;;;;;;7.83;100.00;101890.59;5054162;28;20032;-81
2023/05/31 00:33:09;;;;;;;4.73;2.43;;;;;;;7.74;100.00;101889.63;5074251;28;20044;-82
2023/05/31 00:35:35;;;;;;;3.93;2.10;;;;;;;7.75;100.00;101884.38;5080966;28;20123;-80
2023/05/31 00:38:05;;;;;;;4.83;2.00;;;;;;;7.78;100.00;101884.41;5060876;28;20048;-80
2023/05/31 00:40:33;;;;;;;2.77;2.07;;;;;;;7.71;100.00;101890.47;5070087;28;20093;-81
2023/05/31 00:43:00;;;;;;;4.67;2.27;;;;;;;7.71;100.00;101879.94;5093733;28;20039;-80
2023/05/31 00:45:28;;;;;;;3.93;1.90;;;;;;;7.66;100.00;101886.91;5077047;28;20043;-81
2023/05/31 00:47:56;;;;;;;3.50;1.90;;;;;;;7.69;100.00;101886.06;5080530;28;20025;-81
2023/05/31 00:50:22;;;;;;;4.10;2.00;;;;;;;7.67;100.00;101886.03;5060031;28;20043;-80
2023/05/31 00:52:51;;;;;;;4.77;2.13;;;;;;;7.61;100.00;101897.38;5072820;28;20039;-82
2023/05/31 00:55:18;;;;;;;3.73;1.90;;;;;;;7.56;100.00;101898.16;5068175;28;20161;-81
2023/05/31 00:57:45;;;;;;;3.73;2.10;;;;;;;7.38;100.00;101892.69;5076922;28;20032;-82
2023/05/31 01:00:14;;;;;;;3.70;2.37;;;;;;;7.45;100.00;101895.41;5057758;28;20406;-81
2023/05/31 01:02:43;;;;;;;3.20;1.90;;;;;;;7.58;100.00;101894.72;5057777;28;20036;-82
2023/05/31 01:05:10;;;;;;;2.90;2.10;;;;;;;7.57;100.00;101898.22;5055367;28;20035;-80
2023/05/31 01:07:37;;;;;;;3.87;1.90;;;;;;;7.57;100.00;101903.47;5069387;28;20063;-78
2023/05/31 01:10:06;;;;;;;4.77;2.00;;;;;;;7.40;100.00;101910.28;5064788;28;20060;-78
2023/05/31 01:12:52;;;;;;;5.63;2.30;;;;;;;7.42;100.00;101913.81;5074157;28;20110;-79
2023/05/31 01:15:20;;;;;;;5.80;2.70;;;;;;;7.33;100.00;101904.06;5103259;28;20048;-82
2023/05/31 01:18:00;;;;;;;3.37;2.03;;;;;;;7.40;100.00;101909.38;5093949;28;20036;-79
2023/05/31 01:20:32;;;;;;;4.83;2.20;;;;;;;7.34;100.00;101905.81;5098972;28;20046;-81
2023/05/31 01:23:22;;;;;;;3.90;2.10;;;;;;;7.26;100.00;101910.09;5078179;28;20102;-80
2023/05/31 01:26:07;;;;;;;3.83;1.87;;;;;;;7.29;100.00;101903.97;5101668;28;20100;-79
2023/05/31 01:28:37;;;;;;;4.93;2.27;;;;;;;7.21;100.00;101908.25;5108273;28;20056;-81
2023/05/31 01:31:08;;;;;;;3.20;2.03;;;;;;;7.11;100.00;101912.50;5104235;28;20449;-80
2023/05/31 01:33:36;;;;;;;3.10;2.17;;;;;;;7.06;100.00;101911.53;5092159;28;20485;-79
2023/05/31 01:36:03;;;;;;;4.17;1.93;;;;;;;6.98;100.00;101916.72;5112264;28;20040;-79
2023/05/31 01:38:30;;;;;;;3.17;2.07;;;;;;;6.88;100.00;101914.81;5079341;28;20035;-80
2023/05/31 01:40:57;;;;;;;3.90;2.57;;;;;;;6.83;100.00;101913.88;5098785;28;20296;-82
2023/05/31 01:43:28;;;;;;;3.57;1.90;;;;;;;6.73;100.00;101914.59;5104066;28;20505;-81
2023/05/31 01:45:55;;;;;;;4.80;2.10;;;;;;;6.75;100.00;101924.25;5076201;28;20031;-82
2023/05/31 01:48:23;;;;;;;3.43;1.90;;;;;;;6.78;100.00;101915.53;5087276;28;20036;-82
2023/05/31 01:50:50;;;;;;;3.23;1.80;;;;;;;6.74;100.00;101922.50;5097518;28;20641;-82
2023/05/31 01:53:17;;;;;;;3.40;1.80;;;;;;;6.67;100.00;101925.88;5084536;28;20036;-82
2023/05/31 01:55:44;;;;;;;3.60;1.90;;;;;;;6.57;100.00;101925.72;5082045;28;20103;-80
2023/05/31 01:58:12;;;;;;;4.23;2.23;;;;;;;6.54;100.00;101923.03;5086431;28;20036;-79
2023/05/31 02:00:40;;;;;;;4.87;2.37;;;;;;;6.57;100.00;101926.59;5096644;28;20111;-81
2023/05/31 02:03:07;;;;;;;3.60;2.07;;;;;;;6.59;100.00;101916.13;5061115;28;20036;-79
2023/05/31 02:05:34;;;;;;;3.63;2.40;;;;;;;6.52;100.00;101925.63;5085913;28;20043;-84
2023/05/31 02:08:00;;;;;;;3.63;1.70;;;;;;;6.47;100.00;101924.66;5086988;28;20032;-82
2023/05/31 02:10:27;;;;;;;5.23;2.23;;;;;;;6.45;100.00;101915.88;5089829;28;20042;-83
2023/05/31 02:12:54;;;;;;;3.30;1.90;;;;;;;6.49;100.00;101917.72;5050701;28;20425;-81
2023/05/31 02:15:22;;;;;;;3.20;1.97;;;;;;;6.48;100.00;101918.56;5074191;28;20064;-81
2023/05/31 02:17:52;;;;;;;5.13;2.13;;;;;;;6.42;100.00;101908.84;5058578;28;20031;-84
2023/05/31 02:20:19;;;;;;;3.40;1.80;;;;;;;6.38;100.00;101909.63;5069562;28;20076;-81
2023/05/31 02:22:46;;;;;;;3.67;2.13;;;;;;;6.35;100.00;101917.47;5064848;28;20450;-83
2023/05/31 02:25:14;;;;;;;3.20;2.17;;;;;;;6.36;100.00;101907.84;5074283;28;20044;-81
2023/05/31 02:27:41;;;;;;;4.03;2.00;;;;;;;6.29;100.00;101912.09;5059066;28;20496;-82
2023/05/31 02:30:09;;;;;;;3.20;2.10;;;;;;;6.29;100.00;101905.97;5078353;28;20334;-83
2023/05/31 02:32:37;;;;;;;3.30;2.10;;;;;;;6.37;100.00;101912.25;5075228;28;20050;-84
2023/05/31 02:35:06;;;;;;;3.67;2.47;;;;;;;6.43;100.00;101902.72;5072551;28;20182;-82
2023/05/31 02:37:33;;;;;;;5.20;2.10;;;;;;;6.44;100.00;101907.13;5067762;28;20039;-82
2023/05/31 02:40:07;;;;;;;3.40;1.90;;;;;;;6.43;100.00;101907.97;5078405;28;20490;-82
2023/05/31 02:42:39;;;;;;;4.83;2.97;;;;;;;6.39;100.00;101908.81;5055680;28;20657;-81
2023/05/31 02:45:09;;;;;;;5.33;2.03;;;;;;;6.29;100.00;101911.22;5057704;28;20048;-83
2023/05/31 02:47:38;;;;;;;7.77;2.53;;;;;;;6.20;100.00;101904.06;5107096;28;20139;-84
2023/05/31 02:50:07;;;;;;;15.53;4.10;;;;;;;6.13;100.00;101902.19;5091445;28;20040;-81
2023/05/31 02:52:34;;;;;;;24.30;5.13;;;;;;;6.16;100.00;101899.66;5071297;28;20051;-82
2023/05/31 02:55:01;;;;;;;18.43;4.77;;;;;;;6.08;100.00;101896.00;5074671;28;20619;-81
2023/05/31 02:57:28;;;;;;;20.97;4.40;;;;;;;5.99;100.00;101896.72;5051585;28;20037;-84
2023/05/31 03:00:10;;;;;;;37.93;6.87;;;;;;;5.96;100.00;101896.66;5076434;28;20130;-83
2023/05/31 03:02:38;;;;;;;45.03;9.53;;;;;;;5.94;100.00;101895.75;5072599;28;20485;-81
2023/05/31 03:05:06;;;;;;;50.53;7.60;;;;;;;5.98;100.00;101887.09;5062146;28;20414;-82
2023/05/31 03:07:33;;;;;;;44.37;7.57;;;;;;;5.91;100.00;101885.22;5084774;28;20036;-82
2023/05/31 03:10:00;;;;;;;41.23;7.40;;;;;;;5.83;100.00;101886.78;5056508;28;20043;-81
2023/05/31 03:12:26;;;;;;;19.90;4.47;;;;;;;5.80;100.00;101884.06;5077400;28;20086;-82
2023/05/31 03:14:53;;;;;;;12.30;3.10;;;;;;;5.81;100.00;101893.75;5060968;28;20542;-82
2023/05/31 03:17:20;;;;;;;16.77;4.83;;;;;;;5.88;100.00;101899.09;5058239;28;20036;-82
2023/05/31 03:19:47;;;;;;;13.67;3.33;;;;;;;5.81;100.00;101899.88;5071125;28;20044;-82
2023/05/31 03:22:13;;;;;;;12.90;3.13;;;;;;;5.80;100.00;101898.09;5062588;28;20036;-82
2023/05/31 03:24:40;;;;;;;11.90;3.27;;;;;;;5.79;100.00;101898.03;5070899;28;20036;-84
2023/05/31 03:27:07;;;;;;;12.77;3.17;;;;;;;5.80;100.00;101905.97;5074788;28;20130;-81
2023/05/31 03:29:38;;;;;;;14.20;3.63;;;;;;;5.84;100.00;101901.66;5056457;28;20093;-82
2023/05/31 03:32:05;;;;;;;11.43;3.23;;;;;;;5.82;100.00;101901.63;5048548;28;20040;-83
2023/05/31 03:34:32;;;;;;;6.17;3.07;;;;;;;5.79;100.00;101904.19;5065738;28;20051;-82
2023/05/31 03:36:59;;;;;;;8.67;3.30;;;;;;;5.77;100.00;101905.00;5071377;28;20697;-81
2023/05/31 03:39:26;;;;;;;4.97;2.47;;;;;;;5.77;100.00;101895.41;5050008;28;20127;-81
2023/05/31 03:41:53;;;;;;;11.10;3.33;;;;;;;5.83;100.00;101900.78;5054648;28;20036;-82
2023/05/31 03:44:19;;;;;;;6.17;2.27;;;;;;;5.79;100.00;101892.81;5088645;28;20065;-81
2023/05/31 03:46:47;;;;;;;3.70;2.13;;;;;;;5.79;100.00;101895.44;5055026;28;20062;-81
2023/05/31 03:49:13;;;;;;;7.27;2.37;;;;;;;5.77;100.00;101887.53;5066382;28;20107;-81
2023/05/31 03:51:40;;;;;;;7.80;3.10;;;;;;;5.78;100.00;101894.53;5072221;28;20035;-80
2023/05/31 03:54:07;;;;;;;12.93;2.80;;;;;;;5.95;100.00;101889.66;5055186;28;20534;-83
2023/05/31 03:56:33;;;;;;;10.57;2.60;;;;;;;5.88;100.00;101895.59;5061192;28;20051;-82
2023/05/31 03:59:00;;;;;;;7.47;3.03;;;;;;;5.82;100.00;101888.53;5088658;28;20489;-81
2023/05/31 04:01:27;;;;;;;14.00;3.13;;;;;;;5.89;100.00;101898.28;5074902;28;20036;-83
2023/05/31 04:03:53;;;;;;;10.03;3.10;;;;;;;5.95;100.00;101901.88;5070893;27;20432;-82
2023/05/31 04:06:20;;;;;;;5.90;2.27;;;;;;;5.98;100.00;101899.34;5067714;28;20040;-81
2023/05/31 04:08:47;;;;;;;11.10;3.20;;;;;;;5.97;100.00;101892.28;5067617;28;20111;-82
2023/05/31 04:11:14;;;;;;;4.47;2.57;;;;;;;5.93;100.00;101887.00;5066511;28;20036;-81
2023/05/31 04:13:40;;;;;;;7.13;2.67;;;;;;;5.99;100.00;101891.47;5086726;28;20036;-82
2023/05/31 04:16:07;;;;;;;9.33;2.70;;;;;;;6.05;100.00;101891.56;5075904;28;20036;-83
2023/05/31 04:18:34;;;;;;;8.20;3.00;;;;;;;6.03;100.00;101895.91;5070676;28;20117;-81
2023/05/31 04:21:01;;;;;;;3.27;2.07;;;;;;;5.99;100.00;101901.97;5071588;28;20501;-82
2023/05/31 04:23:29;;;;;;;4.67;2.27;;;;;;;6.01;100.00;101889.75;5060169;28;20042;-81
2023/05/31 04:25:57;;;;;;;3.27;2.00;;;;;;;6.16;100.00;101892.66;5071698;28;20060;-82
2023/05/31 04:28:24;;;;;;;4.60;2.20;;;;;;;6.18;100.00;101885.69;5080488;28;20055;-82
2023/05/31 04:30:51;;;;;;;4.77;2.30;;;;;;;6.17;100.00;101886.56;5066984;28;20047;-81
2023/05/31 04:33:19;;;;;;;6.20;3.20;;;;;;;6.20;100.00;101888.34;5061932;28;20040;-81
2023/05/31 04:35:46;;;;;;;7.60;3.13;;;;;;;6.29;100.00;101887.59;5058772;28;20041;-82
2023/05/31 04:38:14;;;;;;;10.57;3.33;;;;;;;6.37;100.00;101886.00;5070237;28;20044;-80
2023/05/31 04:40:42;;;;;;;5.80;2.67;;;;;;;6.39;100.00;101887.81;5085714;28;20059;-81
2023/05/31 04:43:08;;;;;;;5.53;2.50;;;;;;;6.48;100.00;101881.81;5059474;28;20067;-80
2023/05/31 04:45:35;;;;;;;4.47;2.40;;;;;;;6.46;100.00;101881.78;5068488;28;20417;-82
2023/05/31 04:48:02;;;;;;;4.90;2.63;;;;;;;6.62;100.00;101888.16;5038433;28;20043;-82
2023/05/31 04:50:29;;;;;;;7.13;3.07;;;;;;;6.85;100.00;101878.00;5064381;28;20482;-81
2023/05/31 04:52:57;;;;;;;6.17;2.70;;;;;;;6.83;100.00;101881.47;5066840;28;20066;-81
2023/05/31 04:55:24;;;;;;;6.57;2.40;;;;;;;7.10;100.00;101886.22;5066240;28;20147;-82
2023/05/31 04:57:51;;;;;;;3.83;2.53;;;;;;;7.77;100.00;101880.00;5055588;28;20071;-81
2023/05/31 05:00:19;;;;;;;4.70;2.43;;;;;;;8.12;100.00;101885.63;5048172;28;20044;-82
2023/05/31 05:02:46;;;;;;;5.27;2.53;;;;;;;8.09;100.00;101890.84;5059087;28;20052;-82
2023/05/31 05:05:13;;;;;;;4.63;2.40;;;;;;;8.15;100.00;101884.75;5087436;28;20046;-83
2023/05/31 05:07:39;;;;;;;4.67;2.20;;;;;;;8.31;100.00;101893.66;5073106;28;20078;-81
2023/05/31 05:10:07;;;;;;;6.00;2.30;;;;;;;8.68;100.00;101886.97;5062502;28;20053;-82
2023/05/31 05:12:34;;;;;;;6.60;3.10;;;;;;;8.70;100.00;101888.75;5060057;28;20046;-80
2023/05/31 05:15:02;;;;;;;4.70;2.77;;;;;;;8.68;100.00;101893.13;5084108;28;20043;-81
2023/05/31 05:17:29;;;;;;;6.87;2.77;;;;;;;8.58;100.00;101885.16;5064799;28;20596;-82
2023/05/31 05:19:56;;;;;;;12.97;2.80;;;;;;;8.61;100.00;101882.53;5055924;28;20060;-82
2023/05/31 05:22:23;;;;;;;4.93;2.93;;;;;;;8.80;100.00;101883.53;5080019;28;20378;-83
2023/05/31 05:24:50;;;;;;;8.10;2.60;;;;;;;8.80;100.00;101873.88;5113340;28;20035;-80
2023/05/31 05:27:17;;;;;;;63.13;9.60;;;;;;;8.76;100.00;101877.38;5095862;28;20063;-82
2023/05/31 05:29:43;;;;;;;18.60;4.63;;;;;;;9.08;100.00;101874.94;5080414;28;20047;-80
2023/05/31 05:32:10;;;;;;;81.47;11.13;;;;;;;9.38;100.00;101874.16;5079591;28;20055;-81
2023/05/31 05:34:37;;;;;;;83.53;12.03;;;;;;;10.19;100.00;101876.13;5079821;28;20075;-80
2023/05/31 05:37:04;;;;;;;26.23;5.30;;;;;;;12.62;100.00;101865.38;5083356;28;20039;-79
2023/05/31 05:39:30;;;;;;;16.48;4.43;;;;;;;15.20;84.57;101857.09;5100796;28;20573;-82
2023/05/31 05:41:57;;;;;;;5.57;3.10;;;;;;;17.51;63.24;101839.72;5076764;28;20084;-79
2023/05/31 05:44:24;;;;;;;6.03;2.00;;;;;;;19.26;52.84;101846.28;5068165;28;20488;-81
2023/05/31 05:46:50;;;;;;;12.45;3.50;;;;;;;20.98;46.59;101844.53;5105684;28;20508;-81
2023/05/31 05:49:17;;;;;;;5.43;1.85;;;;;;;22.75;43.88;101835.91;5077602;28;20040;-82
2023/05/31 05:51:45;;;;;;;5.15;2.40;;;;;;;24.21;40.67;101834.09;5077962;28;20062;-82
2023/05/31 05:54:12;;;;;;;3.97;2.13;;;;;;;25.37;37.73;101832.38;5070365;28;20119;-81
2023/05/31 05:56:38;;;;;;;3.22;2.13;;;;;;;25.46;34.81;101839.03;5095993;28;20036;-82
2023/05/31 05:59:05;;;;;;;8.75;2.40;;;;;;;25.29;33.97;101836.56;5066009;28;20063;-80
2023/05/31 06:01:32;;;;;;;4.50;1.95;;;;;;;25.18;34.00;101838.09;5077972;28;20047;-79
2023/05/31 06:04:01;;;;;;;3.45;1.88;;;;;;;24.69;34.20;101834.84;5049936;28;20087;-81
2023/05/31 06:06:28;;;;;;;3.38;1.98;;;;;;;24.19;36.98;101840.53;5064807;28;20036;-81
2023/05/31 06:08:55;;;;;;;3.95;2.08;;;;;;;23.52;36.94;101832.63;5063801;28;20028;-82
2023/05/31 06:11:22;;;;;;;3.40;1.90;;;;;;;22.74;38.60;101828.78;5066185;28;20085;-81
2023/05/31 06:13:49;;;;;;;3.33;2.13;;;;;;;22.13;41.31;101826.56;5068934;28;20036;-81
2023/05/31 06:16:15;;;;;;;176.00;26.42;;;;;;;21.60;42.29;101829.13;5071901;28;20044;-81
2023/05/31 06:18:42;;;;;;;62.75;9.15;;;;;;;21.20;42.84;101820.25;5050366;28;20516;-80
2023/05/31 06:21:09;;;;;;;4.97;1.90;;;;;;;20.22;42.94;101824.56;5053551;28;20044;-81
2023/05/31 06:23:35;;;;;;;3.90;2.30;;;;;;;19.78;44.72;101826.41;5085686;28;20055;-82
2023/05/31 06:26:03;;;;;;;75.30;10.43;;;;;;;18.95;45.90;101825.13;5060835;28;20040;-81
2023/05/31 06:28:30;;;;;;;4.82;1.92;;;;;;;19.64;46.50;101820.69;5082980;28;20043;-83
2023/05/31 06:31:02;;;;;;;10.07;3.33;;;;;;;19.89;46.23;101815.22;5080216;28;20302;-81
2023/05/31 06:33:29;;;;;;;8.23;3.40;;;;;;;19.66;46.48;101825.06;5058007;28;20042;-81
2023/05/31 06:35:56;;;;;;;7.45;2.30;;;;;;;19.66;45.00;101819.69;5077221;28;20039;-81
2023/05/31 06:38:23;;;;;;;4.28;1.70;;;;;;;18.14;46.48;101822.56;5058259;27;20041;-80
2023/05/31 06:40:50;;;;;;;4.00;1.85;;;;;;;18.75;48.63;101817.78;5056569;28;20043;-81
2023/05/31 06:43:16;;;;;;;3.90;1.90;;;;;;;19.40;47.01;101817.13;5074839;28;20043;-82
2023/05/31 06:45:43;;;;;;;2.75;1.73;;;;;;;19.77;45.39;101818.41;5077709;28;20036;-81
2023/05/31 06:48:10;;;;;;;4.47;1.92;;;;;;;19.37;44.82;101814.59;5074212;28;20042;-83
2023/05/31 06:50:36;;;;;;;3.53;1.92;;;;;;;19.86;44.14;101810.00;5054271;28;20627;-81
2023/05/31 06:53:03;;;;;;;3.95;2.03;;;;;;;20.11;43.83;101805.34;5045459;28;20505;-81
2023/05/31 06:55:30;;;;;;;4.25;1.95;;;;;;;19.68;43.66;101808.94;5067150;28;20028;-82
2023/05/31 06:57:57;;;;;;;472.20;62.35;;;;;;;19.16;45.92;101802.88;5089367;28;20051;-82
2023/05/31 07:00:24;;;;;;;10.38;2.40;;;;;;;19.82;45.60;101800.31;5066696;28;20118;-81
2023/05/31 07:02:51;;;;;;;8.88;2.63;;;;;;;20.15;44.51;101798.03;5074103;28;20421;-79
2023/05/31 07:05:18;;;;;;;128.05;17.30;;;;;;;20.13;43.35;101803.47;5082636;28;20101;-79
2023/05/31 07:07:44;;;;;;;20.73;4.00;;;;;;;20.47;43.02;101807.44;5082102;28;20040;-81
2023/05/31 07:10:11;;;;;;;44.75;7.22;;;;;;;20.39;42.68;101809.53;5070345;28;20040;-80
2023/05/31 07:12:39;;;;;;;52.42;7.68;;;;;;;20.18;42.08;101806.84;5053474;28;20032;-81
2023/05/31 07:15:06;;;;;;;14.63;3.60;;;;;;;19.79;42.84;101814.72;5047544;28;20050;-80
2023/05/31 07:17:33;;;;;;;5.75;1.95;;;;;;;20.22;41.71;101803.09;5048712;28;20064;-79
2023/05/31 07:20:00;;;;;;;4.88;2.20;;;;;;;20.18;42.47;101796.13;5067844;28;20046;-79
2023/05/31 07:22:27;;;;;;;6.10;2.00;;;;;;;20.05;41.29;101802.06;5074136;28;20043;-81
2023/05/31 07:24:53;;;;;;;3.42;1.83;;;;;;;20.47;42.31;101794.00;5091380;28;20092;-80
2023/05/31 07:27:21;;;;;;;358.10;46.75;;;;;;;20.75;41.76;101788.28;5095562;28;20043;-80
2023/05/31 07:29:48;;;;;;;12.73;2.72;;;;;;;20.53;41.49;101793.75;5075954;28;20140;-82
2023/05/31 07:32:15;;;;;;;348.13;48.58;;;;;;;20.80;41.36;101795.19;5056658;28;20138;-81
2023/05/31 07:34:42;;;;;;;11.43;2.85;;;;;;;21.02;41.90;101787.06;5064111;28;20122;-80
2023/05/31 07:37:28;;;;;;;3.25;1.90;;;;;;;21.30;39.84;101789.34;5079745;28;20040;-84
2023/05/31 07:39:55;;;;;;;5.55;1.75;;;;;;;21.56;39.61;101782.72;5083537;28;20416;-81
2023/05/31 07:42:21;;;;;;;3.40;1.90;;;;;;;21.74;39.66;101786.31;5078270;28;20160;-79
2023/05/31 07:44:48;;;;;;;2.70;1.80;;;;;;;22.03;39.16;101784.88;5088889;28;20089;-82
2023/05/31 07:47:16;;;;;;;5.82;1.92;;;;;;;22.41;37.83;101776.69;5067967;28;20089;-82
2023/05/31 07:49:43;;;;;;;2.20;1.40;;;;;;;22.62;38.09;101770.16;5060475;28;20032;-80
2023/05/31 07:52:09;;;;;;;2.95;1.55;;;;;;;22.82;36.54;101763.69;5073022;28;20067;-82
2023/05/31 07:54:36;;;;;;;3.92;1.63;;;;;;;22.97;35.40;101771.00;5060318;28;20043;-81
2023/05/31 07:57:03;;;;;;;2.22;1.83;;;;;;;23.16;35.73;101768.16;5041770;28;20123;-80
2023/05/31 07:59:30;;;;;;;2.67;1.55;;;;;;;23.30;35.63;101762.84;5066168;28;20067;-80
2023/05/31 08:01:57;;;;;;;9.07;1.90;;;;;;;23.19;36.00;101751.78;5072311;28;20500;-81
2023/05/31 08:04:24;;;;;;;9.57;2.85;;;;;;;23.50;34.67;101748.22;5094156;28;20038;-83
2023/05/31 08:06:50;;;;;;;3.25;1.98;;;;;;;23.48;34.81;101743.91;5076279;28;20063;-81
2023/05/31 08:09:17;;;;;;;3.50;2.05;;;;;;;23.46;35.51;101751.22;5066683;28;20033;-80
2023/05/31 08:11:44;;;;;;;2.85;1.83;;;;;;;23.59;34.97;101747.72;5075722;28;20528;-80
2023/05/31 08:14:12;;;;;;;3.30;1.98;;;;;;;23.21;34.55;101749.03;5065224;28;20067;-82
2023/05/31 08:16:39;;;;;;;4.95;1.70;;;;;;;23.38;35.34;101753.47;5065141;28;20692;-81
2023/05/31 08:19:06;;;;;;;4.18;1.58;;;;;;;23.39;34.63;101748.00;5070504;28;20073;-81
2023/05/31 08:21:35;;;;;;;3.65;1.30;;;;;;;23.42;34.14;101745.09;5070938;28;20186;-82
2023/05/31 08:24:05;;;;;;;1.70;1.60;;;;;;;23.46;33.80;101752.09;5064498;28;20047;-80
2023/05/31 08:26:33;;;;;;;2.75;1.80;;;;;;;22.76;34.54;101742.47;5091590;28;20059;-81
2023/05/31 08:28:59;;;;;;;3.28;1.65;;;;;;;23.49;34.90;101745.63;5051807;28;20145;-81
2023/05/31 08:31:26;;;;;;;2.67;1.52;;;;;;;23.62;33.56;101745.81;5074669;28;20357;-82
2023/05/31 08:33:58;;;;;;;2.25;1.88;;;;;;;23.86;33.21;101747.09;5075598;28;20630;-82
2023/05/31 08:36:26;;;;;;;2.28;1.55;;;;;;;23.67;32.70;101744.59;5058825;28;20097;-82
2023/05/31 08:38:53;;;;;;;2.03;1.30;;;;;;;23.95;32.51;101749.22;5088512;28;20465;-83
2023/05/31 08:41:22;;;;;;;2.28;1.55;;;;;;;24.28;32.28;101746.34;5092175;28;20088;-81
2023/05/31 08:43:49;;;;;;;2.55;1.58;;;;;;;24.55;31.46;101751.03;5057280;28;20036;-81
2023/05/31 08:46:16;;;;;;;1.23;1.08;;;;;;;24.74;30.36;101740.84;5088561;28;20050;-82
2023/05/31 08:48:48;;;;;;;1.73;1.17;;;;;;;24.59;29.73;101737.28;5052036;28;20039;-82
2023/05/31 08:51:15;;;;;;;2.47;1.13;;;;;;;24.67;30.49;101725.97;5083592;28;20070;-81
2023/05/31 08:53:42;;;;;;;2.40;1.30;;;;;;;24.64;30.41;101728.88;5067182;28;20028;-81
2023/05/31 08:56:10;;;;;;;2.58;1.48;;;;;;;24.69;30.29;101732.16;5083343;28;20055;-84
2023/05/31 08:58:37;;;;;;;2.38;1.50;;;;;;;24.43;30.00;101728.38;5084788;28;20061;-81
2023/05/31 09:01:05;;;;;;;14.02;2.92;;;;;;;24.49;30.57;101729.84;5085881;28;20469;-81
2023/05/31 09:03:32;;;;;;;3.05;1.45;;;;;;;24.37;30.57;101718.81;5059278;28;20048;-83
2023/05/31 09:06:00;;;;;;;2.42;1.83;;;;;;;24.59;30.70;101712.09;5083678;28;20056;-82
2023/05/31 09:08:26;;;;;;;2.65;1.52;;;;;;;24.33;30.79;101708.28;5076295;28;20048;-83
2023/05/31 09:10:53;;;;;;;3.55;1.42;;;;;;;24.54;31.02;101703.38;5055879;28;20166;-81
2023/05/31 09:13:20;;;;;;;3.33;1.60;;;;;;;24.97;31.46;101712.34;5088982;28;20071;-79
2023/05/31 09:15:48;;;;;;;5.78;2.30;;;;;;;25.03;31.04;101712.00;5048932;28;20036;-81
2023/05/31 09:18:22;;;;;;;3.03;1.65;;;;;;;24.41;29.46;101704.16;5061942;28;20036;-83
2023/05/31 09:20:52;;;;;;;3.88;1.77;;;;;;;24.76;29.54;101706.47;5062674;28;20043;-79
2023/05/31 09:23:19;;;;;;;2.22;1.60;;;;;;;23.45;30.98;101707.16;5091876;28;20382;-83
2023/05/31 09:25:46;;;;;;;3.08;1.70;;;;;;;24.39;30.53;101702.53;5062915;28;21772;-85
2023/05/31 09:28:13;;;;;;;2.65;1.23;;;;;;;24.81;27.09;101709.78;5069082;28;20177;-84
2023/05/31 09:30:41;;;;;;;3.03;1.23;;;;;;;24.96;24.58;101708.78;5089373;28;20034;-82
2023/05/31 09:33:08;;;;;;;1.80;1.10;;;;;;;25.36;24.66;101708.06;5067262;28;20057;-83
2023/05/31 09:35:34;;;;;;;2.10;1.08;;;;;;;25.37;23.63;101705.25;5053345;28;20046;-80
2023/05/31 09:38:05;;;;;;;2.30;1.80;;;;;;;25.85;25.48;101702.09;5076102;28;20036;-83
2023/05/31 09:40:33;;;;;;;1.45;1.20;;;;;;;25.80;24.91;101699.69;5062963;28;20028;-81
2023/05/31 09:43:00;;;;;;;2.28;1.33;;;;;;;25.96;24.07;101696.81;5071861;28;20547;-81
2023/05/31 09:45:28;;;;;;;4.32;1.60;;;;;;;25.66;25.81;101687.09;5074186;28;20135;-80
2023/05/31 09:47:55;;;;;;;1.60;1.40;;;;;;;25.90;26.70;101697.25;5077774;28;20031;-80
2023/05/31 09:50:23;;;;;;;2.60;1.40;;;;;;;25.90;26.87;101689.13;5080642;28;20044;-80
2023/05/31 09:52:55;;;;;;;2.45;1.67;;;;;;;25.84;26.86;101694.94;5091630;28;20543;-80
2023/05/31 09:55:22;;;;;;;1.77;1.30;;;;;;;25.54;26.81;101687.88;5049173;28;20093;-81
2023/05/31 09:57:52;;;;;;;8.23;1.90;;;;;;;25.24;27.99;101697.09;5059037;28;20032;-81
2023/05/31 10:00:19;;;;;;;3.65;1.58;;;;;;;25.05;28.47;101690.25;5098149;28;20043;-81
2023/05/31 10:02:51;;;;;;;2.92;1.60;;;;;;;24.68;28.77;101695.28;5093019;28;20033;-82
2023/05/31 10:05:20;;;;;;;2.00;1.40;;;;;;;24.53;30.38;101696.25;5094200;28;20035;-81
2023/05/31 10:07:49;;;;;;;1.70;1.40;;;;;;;24.71;30.77;101685.13;5082694;28;20516;-79
2023/05/31 10:10:20;;;;;;;2.42;1.40;;;;;;;24.98;29.09;101685.22;5078991;28;20035;-81
2023/05/31 10:12:53;;;;;;;3.80;1.60;;;;;;;25.10;28.64;101693.53;5075838;28;20135;-80
2023/05/31 10:15:25;;;;;;;1.42;1.15;;;;;;;25.20;27.71;101692.81;5092806;28;20044;-80
2023/05/31 10:18:10;;;;;;;2.65;1.23;;;;;;;25.26;28.31;101691.56;5096812;28;20137;-79
2023/05/31 10:20:38;;;;;;;3.47;1.88;;;;;;;25.26;27.65;101691.56;5072638;28;20488;-80
2023/05/31 10:23:09;;;;;;;2.00;1.30;;;;;;;25.05;27.21;101685.72;5084597;28;20501;-81
2023/05/31 10:25:56;;;;;;;2.90;1.30;;;;;;;25.39;27.11;101680.78;5076499;28;20042;-81
2023/05/31 10:28:27;;;;;;;1.30;1.05;;;;;;;25.68;28.06;101677.00;5088514;28;20036;-81
2023/05/31 10:30:56;;;;;;;1.90;1.00;;;;;;;26.05;27.04;101677.22;5093199;28;20051;-80
2023/05/31 10:33:25;;;;;;;2.85;1.60;;;;;;;26.27;26.24;101660.34;5078499;28;20432;-81
2023/05/31 10:35:52;;;;;;;2.28;1.15;;;;;;;26.17;24.52;101665.53;5071042;28;20653;-80
2023/05/31 10:38:26;;;;;;;2.75;1.17;;;;;;;25.77;24.85;101659.31;5068832;28;20044;-78
2023/05/31 10:40:59;;;;;;;2.63;1.48;;;;;;;23.84;26.61;101659.94;5090204;28;20039;-81
2023/05/31 10:43:57;;;;;;;2.88;1.50;;;;;;;24.93;25.88;101657.63;5073883;28;20957;-81
2023/05/31 10:46:28;;;;;;;4.10;1.60;;;;;;;25.78;25.27;101647.50;5092842;28;20735;-80
2023/05/31 10:48:57;;;;;;;2.65;1.27;;;;;;;26.08;24.06;101645.38;5070436;28;20550;-80
2023/05/31 10:51:39;;;;;;;2.75;1.60;;;;;;;25.86;24.54;101644.28;5059276;28;20155;-80
2023/05/31 10:54:06;;;;;;;2.83;1.75;;;;;;;25.77;24.60;101643.06;5090161;28;20047;-79
2023/05/31 10:56:37;;;;;;;2.85;1.30;;;;;;;25.70;24.99;101634.47;5057235;28;20123;-81
2023/05/31 10:59:04;;;;;;;2.05;1.40;;;;;;;25.70;24.94;101631.75;5060334;28;20094;-80
2023/05/31 11:01:30;;;;;;;2.85;1.58;;;;;;;25.75;24.43;101632.34;5068903;28;20040;-82
2023/05/31 11:03:57;;;;;;;3.17;1.30;;;;;;;25.53;24.24;101626.63;5070990;28;20501;-82
2023/05/31 11:06:30;;;;;;;2.20;1.45;;;;;;;25.54;25.14;101621.09;5070637;28;20128;-83
2023/05/31 11:09:09;;;;;;;42.42;5.93;;;;;;;25.57;24.60;101621.88;5071012;28;20047;-81
2023/05/31 11:11:36;;;;;;;3.30;1.52;;;;;;;25.69;24.63;101616.50;5078026;28;20050;-83
2023/05/31 11:14:06;;;;;;;2.97;1.42;;;;;;;25.69;24.67;101621.03;5091576;28;20489;-83
2023/05/31 11:16:53;;;;;;;2.65;1.35;;;;;;;25.71;23.75;101609.16;5088295;28;20039;-81
2023/05/31 11:19:27;;;;;;;1.70;1.48;;;;;;;25.76;24.78;101620.53;5107503;28;20031;-82
2023/05/31 11:21:55;;;;;;;2.75;1.40;;;;;;;25.81;24.81;101612.97;5056905;28;20107;-81
2023/05/31 11:24:37;;;;;;;2.65;1.60;;;;;;;25.97;24.04;101606.47;5071663;28;20467;-81
2023/05/31 11:27:06;;;;;;;1.90;1.33;;;;;;;25.51;24.64;101601.53;5092562;28;20052;-82
2023/05/31 11:29:46;;;;;;;3.10;1.73;;;;;;;25.61;24.10;101610.72;5076354;28;20032;-82